createdAt,value
2022-10-17T00:01:58.385Z,1.67
2022-10-17T00:07:00.229Z,2.00
2022-10-17T00:12:02.909Z,1.77
2022-10-17T00:17:05.143Z,2.15
2022-10-17T00:22:07.023Z,2.50
2022-10-17T00:27:08.845Z,1.73
2022-10-17T00:32:10.718Z,2.20
2022-10-17T00:37:12.627Z,1.67
2022-10-17T00:42:14.469Z,2.05
2022-10-17T00:47:21.133Z,2.40
2022-10-17T00:52:27.021Z,1.80
2022-10-17T00:57:31.902Z,2.15
2022-10-17T01:02:33.910Z,1.77
2022-10-17T01:07:37.387Z,2.33
2022-10-17T01:13:07.291Z,1.83
2022-10-17T01:18:32.635Z,2.50
2022-10-17T01:24:00.268Z,2.58
2022-10-17T01:29:10.923Z,2.50
2022-10-17T01:34:36.113Z,2.33
2022-10-17T01:39:52.089Z,2.15
2022-10-17T01:45:12.899Z,2.08
2022-10-17T01:50:24.469Z,2.03
2022-10-17T01:55:33.026Z,2.60
2022-10-17T02:00:37.884Z,2.35
2022-10-17T02:05:42.587Z,2.58
2022-10-17T02:10:50.685Z,2.20
2022-10-17T02:16:17.834Z,2.92
2022-10-17T02:21:48.631Z,2.72
2022-10-17T02:27:04.270Z,3.55
2022-10-17T02:32:11.825Z,3.22
2022-10-17T02:37:17.628Z,2.90
2022-10-17T02:42:21.820Z,3.28
2022-10-17T02:47:39.926Z,3.33
2022-10-17T02:53:10.936Z,3.28
2022-10-17T02:58:20.793Z,2.97
2022-10-17T03:03:26.916Z,3.47
2022-10-17T03:08:29.343Z,3.17
2022-10-17T03:13:33.009Z,3.15
2022-10-17T03:18:36.977Z,3.00
2022-10-17T03:23:39.642Z,3.28
2022-10-17T03:28:42.460Z,3.50
2022-10-17T03:33:44.396Z,3.38
2022-10-17T03:38:46.569Z,4.25
2022-10-17T03:43:48.525Z,4.07
2022-10-17T03:48:50.590Z,4.20
2022-10-17T03:53:52.654Z,4.60
2022-10-17T03:58:55.791Z,5.03
2022-10-17T04:03:58.106Z,6.07
2022-10-17T04:09:05.431Z,7.50
2022-10-17T04:14:17.476Z,8.88
2022-10-17T04:19:19.437Z,9.68
2022-10-17T04:24:22.662Z,8.90
2022-10-17T04:29:30.592Z,9.10
2022-10-17T04:34:52.658Z,9.70
2022-10-17T04:39:57.116Z,10.70
2022-10-17T04:44:59.246Z,11.00
2022-10-17T04:50:02.291Z,12.27
2022-10-17T04:55:07.442Z,12.70
2022-10-17T05:00:10.750Z,13.82
2022-10-17T05:05:26.864Z,12.38
2022-10-17T05:10:30.159Z,14.25
2022-10-17T05:15:33.771Z,12.95
2022-10-17T05:20:36.816Z,14.95
2022-10-17T05:25:38.802Z,13.27
2022-10-17T05:30:40.723Z,13.63
2022-10-17T05:35:44.063Z,12.75
2022-10-17T05:40:46.031Z,12.88
2022-10-17T05:45:47.947Z,14.00
2022-10-17T05:51:00.140Z,14.00
2022-10-17T05:56:04.341Z,13.32
2022-10-17T06:01:10.659Z,13.50
2022-10-17T06:06:15.898Z,14.23
2022-10-17T06:11:19.540Z,14.63
2022-10-17T06:16:21.658Z,14.60
2022-10-17T06:21:26.059Z,14.48
2022-10-17T06:26:35.070Z,14.75
2022-10-17T06:31:37.657Z,14.85
2022-10-17T06:36:40.234Z,15.48
2022-10-17T06:41:44.670Z,15.32
2022-10-17T06:46:46.769Z,14.85
2022-10-17T06:51:51.919Z,13.07
2022-10-17T06:56:58.238Z,13.68
2022-10-17T07:02:18.817Z,13.27
2022-10-17T07:07:20.856Z,14.00
2022-10-17T07:12:23.427Z,15.48
2022-10-17T07:17:25.459Z,15.32
2022-10-17T07:22:28.010Z,13.52
2022-10-17T07:27:33.088Z,14.50
2022-10-17T07:32:35.010Z,13.90
2022-10-17T07:37:38.605Z,13.23
2022-10-17T07:42:40.690Z,13.80
2022-10-17T07:47:43.124Z,14.77
2022-10-17T07:52:46.301Z,13.52
2022-10-17T07:57:48.074Z,13.55
2022-10-17T08:02:49.936Z,11.40
2022-10-17T08:07:51.864Z,11.60
2022-10-17T08:12:56.247Z,12.07
2022-10-17T08:17:58.747Z,10.63
2022-10-17T08:23:00.468Z,10.18
2022-10-17T08:28:02.276Z,9.20
2022-10-17T08:33:04.175Z,8.23
2022-10-17T08:38:09.957Z,8.98
2022-10-17T08:43:35.377Z,7.90
2022-10-17T08:48:45.614Z,7.30
2022-10-17T08:54:08.528Z,8.55
2022-10-17T08:59:17.057Z,9.55
2022-10-17T09:04:34.104Z,8.60
2022-10-17T09:10:01.939Z,9.50
2022-10-17T09:15:35.657Z,9.32
2022-10-17T09:20:45.051Z,9.68
2022-10-17T09:25:52.631Z,12.40
2022-10-17T09:31:25.077Z,11.93
2022-10-17T09:36:34.611Z,13.93
2022-10-17T09:41:46.116Z,13.50
2022-10-17T09:47:10.159Z,15.05
2022-10-17T09:52:28.877Z,15.43
2022-10-17T09:57:58.306Z,16.23
2022-10-17T10:03:27.347Z,14.68
2022-10-17T10:08:35.576Z,13.75
2022-10-17T10:13:37.457Z,16.08
2022-10-17T10:18:39.413Z,15.85
2022-10-17T10:23:43.982Z,14.23
2022-10-17T10:28:54.685Z,14.38
2022-10-17T10:33:57.727Z,15.25
2022-10-17T10:39:02.568Z,16.05
2022-10-17T10:44:06.612Z,14.13
2022-10-17T10:49:30.033Z,14.90
2022-10-17T10:54:41.653Z,13.13
2022-10-17T10:59:49.013Z,14.98
2022-10-17T11:05:34.842Z,15.02
2022-10-17T11:11:04.667Z,14.10
2022-10-17T11:16:15.312Z,14.32
2022-10-17T11:21:30.437Z,13.50
2022-10-17T11:26:38.614Z,13.43
2022-10-17T11:31:47.492Z,13.35
2022-10-17T11:36:53.602Z,13.27
2022-10-17T11:42:04.369Z,12.13
2022-10-17T11:47:45.685Z,11.95
2022-10-17T11:53:10.585Z,12.15
2022-10-17T11:58:30.902Z,10.57
2022-10-17T12:03:51.345Z,10.48
2022-10-17T12:09:26.636Z,11.55
2022-10-17T12:14:38.939Z,12.88
2022-10-17T12:19:40.767Z,12.88
2022-10-17T12:24:45.501Z,11.07
2022-10-17T12:29:48.449Z,11.68
2022-10-17T12:34:55.048Z,10.10
2022-10-17T12:39:56.872Z,10.48
2022-10-17T12:44:58.773Z,10.32
2022-10-17T12:50:00.572Z,9.77
2022-10-17T12:55:12.490Z,11.05
2022-10-17T13:00:23.378Z,10.95
2022-10-17T13:05:30.780Z,11.05
2022-10-17T13:10:39.651Z,10.65
2022-10-17T13:15:52.054Z,12.75
2022-10-17T13:21:07.659Z,12.25
2022-10-17T13:26:20.599Z,12.32
2022-10-17T13:31:35.368Z,12.95
2022-10-17T13:36:37.267Z,11.90
2022-10-17T13:41:40.593Z,12.60
2022-10-17T13:46:44.011Z,13.05
2022-10-17T13:51:48.787Z,13.50
2022-10-17T13:56:57.581Z,13.32
2022-10-17T14:02:01.946Z,13.52
2022-10-17T14:07:03.781Z,13.20
2022-10-17T14:12:16.627Z,13.60
2022-10-17T14:17:25.379Z,13.70
2022-10-17T14:22:29.043Z,13.93
2022-10-17T14:27:52.867Z,15.18
2022-10-17T14:33:01.377Z,14.27
2022-10-17T14:38:06.063Z,14.55
2022-10-17T14:43:20.864Z,13.82
2022-10-17T14:48:25.224Z,14.10
2022-10-17T14:53:28.522Z,15.27
2022-10-17T14:58:34.585Z,15.00
2022-10-17T15:03:36.466Z,15.98
2022-10-17T15:08:38.352Z,14.80
2022-10-17T15:13:45.389Z,15.65
2022-10-17T15:18:48.568Z,15.50
2022-10-17T15:23:50.963Z,16.30
2022-10-17T15:28:53.913Z,16.50
2022-10-17T15:33:55.824Z,15.20
2022-10-17T15:38:59.928Z,15.95
2022-10-17T15:44:01.760Z,15.65
2022-10-17T15:49:10.085Z,15.38
2022-10-17T15:59:18.020Z,15.70
2022-10-17T16:04:19.922Z,17.55
2022-10-17T16:09:21.837Z,17.88
2022-10-17T16:14:23.683Z,17.52
2022-10-17T16:19:30.138Z,17.33
2022-10-17T16:24:32.476Z,17.80
2022-10-17T16:29:34.368Z,17.05
2022-10-17T16:34:36.156Z,16.30
2022-10-17T16:39:37.963Z,17.15
2022-10-17T16:44:39.809Z,17.25
2022-10-17T16:49:44.450Z,17.17
2022-10-17T16:54:47.299Z,17.90
2022-10-17T16:59:49.103Z,17.70
2022-10-17T17:04:50.977Z,17.42
2022-10-17T17:09:56.309Z,19.08
2022-10-17T17:14:58.104Z,20.27
2022-10-17T17:19:59.976Z,64.47
2022-10-17T17:25:01.774Z,21.33
2022-10-17T17:30:03.771Z,24.83
2022-10-17T17:35:05.904Z,25.52
2022-10-17T17:40:08.493Z,27.65
2022-10-17T17:45:10.819Z,26.42
2022-10-17T17:50:12.764Z,22.35
2022-10-17T17:55:14.750Z,21.27
2022-10-17T18:00:16.803Z,19.33
2022-10-17T18:05:18.640Z,20.05
2022-10-17T18:10:20.577Z,19.67
2022-10-17T18:15:22.423Z,19.52
2022-10-17T18:20:24.597Z,19.08
2022-10-17T18:25:26.791Z,18.83
2022-10-17T18:30:31.029Z,18.30
2022-10-17T18:35:36.166Z,19.10
2022-10-17T18:40:38.061Z,18.75
2022-10-17T18:45:39.899Z,19.33
2022-10-17T18:50:41.962Z,15.93
2022-10-17T18:55:43.866Z,15.57
2022-10-17T19:00:46.369Z,17.02
2022-10-17T19:05:48.204Z,15.40
2022-10-17T19:10:50.882Z,15.50
2022-10-17T19:15:52.685Z,16.40
2022-10-17T19:20:54.722Z,14.40
2022-10-17T19:26:11.602Z,15.13
2022-10-17T19:31:16.987Z,14.07
2022-10-17T19:36:22.045Z,15.30
2022-10-17T19:41:24.444Z,13.70
2022-10-17T19:46:28.369Z,13.32
2022-10-17T19:51:31.050Z,13.05
2022-10-17T19:56:38.275Z,13.10
2022-10-17T20:01:40.716Z,13.10
2022-10-17T20:06:42.806Z,15.80
2022-10-17T20:11:44.847Z,16.95
2022-10-17T20:16:52.226Z,15.57
2022-10-17T20:21:54.401Z,13.45
2022-10-17T20:26:56.370Z,13.80
2022-10-17T20:31:58.640Z,13.93
2022-10-17T20:37:01.653Z,13.65
2022-10-17T20:42:03.782Z,12.63
2022-10-17T20:47:11.965Z,13.88
2022-10-17T20:52:18.211Z,12.68
2022-10-17T20:57:20.100Z,12.90
2022-10-17T21:02:21.885Z,12.07
2022-10-17T21:07:25.275Z,13.07
2022-10-17T21:12:36.830Z,12.15
2022-10-17T21:17:45.189Z,11.50
2022-10-17T21:22:46.984Z,11.20
2022-10-17T21:27:52.641Z,12.25
2022-10-17T21:32:55.856Z,12.48
2022-10-17T21:37:57.789Z,11.82
2022-10-17T21:42:59.582Z,11.35
2022-10-17T21:48:12.648Z,11.25
2022-10-17T21:53:14.829Z,12.20
2022-10-17T21:58:16.610Z,11.48
2022-10-17T22:03:18.425Z,11.38
2022-10-17T22:08:20.317Z,10.73
2022-10-17T22:13:22.107Z,10.57
2022-10-17T22:18:23.949Z,9.70
2022-10-17T22:23:26.082Z,9.88
2022-10-17T22:28:28.199Z,9.98
2022-10-17T22:33:32.890Z,9.05
2022-10-17T22:38:34.882Z,9.45
2022-10-17T22:43:36.737Z,11.02
2022-10-17T22:48:38.798Z,10.32
2022-10-17T22:53:40.618Z,8.63
2022-10-17T22:58:42.762Z,7.82
2022-10-17T23:03:45.148Z,6.85
2022-10-17T23:08:47.328Z,6.90
2022-10-17T23:13:49.163Z,6.78
2022-10-17T23:18:50.963Z,6.95
2022-10-17T23:23:52.839Z,5.97
2022-10-17T23:28:54.995Z,6.88
2022-10-17T23:33:56.832Z,6.45
2022-10-17T23:38:58.841Z,6.65
2022-10-17T23:44:00.652Z,6.60
2022-10-17T23:49:02.446Z,6.40
2022-10-17T23:54:04.858Z,6.85
2022-10-17T23:59:06.645Z,6.47
